createdAt,value
2019-04-14T00:01:04.330Z,21.50
2019-04-14T00:03:37.567Z,19.93
2019-04-14T00:06:06.983Z,20.57
2019-04-14T00:08:35.532Z,21.53
2019-04-14T00:11:04.210Z,21.07
2019-04-14T00:13:32.842Z,21.70
2019-04-14T00:16:01.583Z,21.67
2019-04-14T00:18:30.082Z,21.10
2019-04-14T00:20:59.769Z,22.33
2019-04-14T00:23:28.359Z,22.10
2019-04-14T00:26:16.713Z,22.73
2019-04-14T00:28:45.431Z,21.90
2019-04-14T00:31:13.890Z,23.27
2019-04-14T00:33:43.438Z,21.47
2019-04-14T00:36:16.166Z,24.53
2019-04-14T00:38:46.219Z,23.23
2019-04-14T00:41:20.165Z,21.50
2019-04-14T00:43:57.010Z,23.13
2019-04-14T00:46:45.304Z,23.37
2019-04-14T00:49:13.974Z,20.83
2019-04-14T00:51:42.508Z,21.83
2019-04-14T00:54:11.271Z,22.13
2019-04-14T00:56:41.085Z,21.37
2019-04-14T00:59:09.626Z,22.63
2019-04-14T01:01:39.404Z,23.23
2019-04-14T01:04:08.038Z,23.00
2019-04-14T01:06:36.763Z,21.67
2019-04-14T01:09:08.589Z,20.97
2019-04-14T01:11:37.870Z,19.47
2019-04-14T01:14:06.347Z,23.13
2019-04-14T01:16:34.752Z,19.93
2019-04-14T01:19:03.270Z,21.03
2019-04-14T01:21:32.716Z,21.50
2019-04-14T01:24:01.387Z,23.73
2019-04-14T01:26:30.969Z,21.90
2019-04-14T01:28:59.562Z,22.17
2019-04-14T01:31:28.021Z,21.97
2019-04-14T01:33:57.550Z,22.40
2019-04-14T01:36:26.173Z,22.27
2019-04-14T01:38:55.643Z,22.73
2019-04-14T01:41:24.113Z,22.47
2019-04-14T01:43:53.798Z,22.27
2019-04-14T01:46:27.683Z,22.20
2019-04-14T01:48:52.459Z,22.20
2019-04-14T01:51:39.609Z,22.43
2019-04-14T01:54:25.976Z,22.77
2019-04-14T01:56:56.014Z,21.33
2019-04-14T01:59:24.428Z,21.03
2019-04-14T02:01:54.485Z,21.70
2019-04-14T02:04:22.903Z,20.80
2019-04-14T02:06:52.615Z,22.47
2019-04-14T02:09:21.296Z,21.50
2019-04-14T02:11:50.937Z,22.70
2019-04-14T02:14:19.550Z,22.13
2019-04-14T02:16:52.612Z,22.47
2019-04-14T02:19:18.116Z,22.73
2019-04-14T02:21:47.678Z,23.37
2019-04-14T02:24:17.711Z,22.77
2019-04-14T02:26:46.222Z,23.17
2019-04-14T02:29:14.634Z,21.97
2019-04-14T02:32:11.224Z,23.23
2019-04-14T02:34:40.112Z,21.93
2019-04-14T02:37:12.458Z,22.07
2019-04-14T02:39:46.657Z,22.63
2019-04-14T02:42:19.437Z,22.23
2019-04-14T02:47:18.158Z,21.73
2019-04-14T02:49:44.133Z,21.33
2019-04-14T02:52:16.539Z,22.70
2019-04-14T02:54:51.751Z,22.83
2019-04-14T02:57:26.775Z,22.53
2019-04-14T02:59:44.618Z,22.77
2019-04-14T03:04:44.869Z,22.67
2019-04-14T03:07:16.195Z,22.17
2019-04-14T03:12:09.683Z,23.40
2019-04-14T03:17:21.410Z,22.97
2019-04-14T03:22:37.793Z,22.63
2019-04-14T03:25:08.139Z,21.87
2019-04-14T03:30:51.684Z,24.13
2019-04-14T03:33:27.402Z,22.07
2019-04-14T03:35:51.881Z,23.60
2019-04-14T03:37:56.649Z,22.83
2019-04-14T03:40:25.902Z,22.73
2019-04-14T03:42:59.006Z,23.07
2019-04-14T03:45:25.657Z,23.00
2019-04-14T03:48:02.048Z,23.03
2019-04-14T03:50:21.728Z,21.93
2019-04-14T03:52:56.181Z,22.13
2019-04-14T03:55:11.470Z,23.43
2019-04-14T03:57:29.645Z,23.83
2019-04-14T03:59:58.630Z,21.90
2019-04-14T04:02:27.239Z,23.33
2019-04-14T04:04:55.608Z,22.73
2019-04-14T04:07:24.015Z,22.20
2019-04-14T04:09:54.144Z,22.17
2019-04-14T04:12:22.666Z,23.07
2019-04-14T04:14:51.133Z,21.53
2019-04-14T04:17:34.191Z,22.93
2019-04-14T04:20:19.692Z,20.50
2019-04-14T04:23:09.469Z,22.17
2019-04-14T04:25:39.959Z,22.60
2019-04-14T04:28:23.110Z,22.77
2019-04-14T04:30:53.690Z,21.80
2019-04-14T04:33:24.232Z,20.53
2019-04-14T04:36:20.332Z,21.47
2019-04-14T04:38:53.574Z,21.13
2019-04-14T04:41:23.173Z,21.43
2019-04-14T04:43:51.866Z,22.80
2019-04-14T04:46:20.275Z,21.53
2019-04-14T04:49:02.021Z,21.03
2019-04-14T04:51:18.787Z,22.50
2019-04-14T04:53:48.141Z,21.03
2019-04-14T04:56:16.764Z,21.27
2019-04-14T04:58:45.645Z,20.53
2019-04-14T05:01:14.498Z,20.00
2019-04-14T05:03:42.917Z,20.67
2019-04-14T05:06:48.380Z,20.53
2019-04-14T05:09:36.906Z,20.77
2019-04-14T05:12:11.013Z,21.30
2019-04-14T05:14:41.249Z,20.70
2019-04-14T05:17:10.202Z,19.80
2019-04-14T05:19:40.379Z,19.40
2019-04-14T05:22:09.284Z,21.37
2019-04-14T05:24:37.739Z,19.53
2019-04-14T05:27:06.282Z,21.03
2019-04-14T05:29:34.713Z,20.40
2019-04-14T05:32:03.140Z,19.00
2019-04-14T05:34:32.855Z,17.87
2019-04-14T05:37:01.248Z,19.07
2019-04-14T05:39:30.693Z,18.33
2019-04-14T05:42:06.584Z,19.30
2019-04-14T05:44:29.677Z,17.33
2019-04-14T05:46:58.173Z,19.13
2019-04-14T05:49:33.928Z,19.87
2019-04-14T05:51:56.707Z,18.40
2019-04-14T05:54:25.296Z,19.70
2019-04-14T05:56:53.790Z,18.97
2019-04-14T05:59:22.634Z,19.53
2019-04-14T06:01:51.123Z,18.87
2019-04-14T06:04:20.046Z,17.43
2019-04-14T06:06:48.584Z,19.90
2019-04-14T06:09:16.989Z,19.40
2019-04-14T06:11:45.650Z,19.73
2019-04-14T06:14:14.107Z,18.23
2019-04-14T06:16:42.655Z,19.53
2019-04-14T06:19:11.189Z,19.87
2019-04-14T06:21:39.582Z,18.33
2019-04-14T06:24:08.198Z,19.53
2019-04-14T06:26:36.614Z,18.13
2019-04-14T06:29:05.014Z,19.13
2019-04-14T06:31:35.073Z,18.67
2019-04-14T06:34:20.535Z,18.87
2019-04-14T06:36:59.506Z,19.03
2019-04-14T06:39:32.037Z,20.80
2019-04-14T06:42:01.413Z,20.10
2019-04-14T06:44:30.016Z,20.20
2019-04-14T06:46:58.421Z,19.93
2019-04-14T06:49:26.842Z,20.63
2019-04-14T06:51:55.254Z,19.90
2019-04-14T06:54:23.947Z,21.17
2019-04-14T06:56:52.398Z,21.57
2019-04-14T06:59:20.921Z,20.70
2019-04-14T07:01:49.374Z,18.23
2019-04-14T07:04:17.851Z,20.27
2019-04-14T07:06:46.314Z,19.77
2019-04-14T07:09:14.758Z,19.27
2019-04-14T07:11:43.238Z,19.37
2019-04-14T07:14:14.159Z,19.33
2019-04-14T07:16:42.596Z,20.33
2019-04-14T07:19:11.053Z,20.37
2019-04-14T07:21:39.614Z,19.00
2019-04-14T07:24:08.137Z,19.27
2019-04-14T07:26:36.599Z,18.40
2019-04-14T07:29:05.075Z,19.80
2019-04-14T07:31:35.169Z,19.37
2019-04-14T07:34:22.015Z,18.00
2019-04-14T07:36:52.122Z,18.73
2019-04-14T07:39:37.224Z,18.93
2019-04-14T07:42:24.830Z,20.63
2019-04-14T07:45:13.160Z,19.67
2019-04-14T07:50:56.454Z,18.87
2019-04-14T07:53:41.478Z,19.37
2019-04-14T07:56:29.623Z,19.30
2019-04-14T07:59:02.840Z,20.17
2019-04-14T08:01:32.982Z,19.33
2019-04-14T08:04:03.049Z,18.57
2019-04-14T08:06:32.202Z,18.93
2019-04-14T08:09:01.661Z,19.80
2019-04-14T08:11:30.087Z,18.10
2019-04-14T08:13:59.362Z,18.03
2019-04-14T08:16:28.030Z,19.83
2019-04-14T08:18:56.545Z,18.20
2019-04-14T08:21:24.980Z,19.03
2019-04-14T08:23:53.413Z,19.77
2019-04-14T08:26:22.807Z,19.07
2019-04-14T08:28:51.427Z,18.90
2019-04-14T08:31:19.819Z,19.53
2019-04-14T08:33:48.230Z,19.93
2019-04-14T08:36:16.710Z,19.80
2019-04-14T08:38:45.110Z,19.23
2019-04-14T08:41:13.535Z,19.30
2019-04-14T08:43:43.675Z,19.57
2019-04-14T08:46:20.114Z,19.07
2019-04-14T08:48:52.758Z,19.97
2019-04-14T08:51:28.674Z,18.83
2019-04-14T08:54:16.491Z,18.27
2019-04-14T08:56:51.669Z,19.07
2019-04-14T08:59:34.051Z,19.90
2019-04-14T09:02:06.839Z,19.07
2019-04-14T09:04:39.560Z,20.03
2019-04-14T09:07:25.862Z,18.57
2019-04-14T09:10:01.947Z,18.07
2019-04-14T09:12:31.991Z,18.90
2019-04-14T09:15:00.686Z,20.00
2019-04-14T09:17:30.670Z,19.80
2019-04-14T09:19:59.097Z,19.20
2019-04-14T09:22:27.557Z,20.07
2019-04-14T09:24:56.041Z,20.10
2019-04-14T09:27:24.667Z,20.30
2019-04-14T09:29:53.170Z,18.50
2019-04-14T09:32:22.037Z,18.90
2019-04-14T09:34:50.434Z,20.57
2019-04-14T09:37:18.948Z,19.97
2019-04-14T09:39:47.659Z,19.80
2019-04-14T09:42:16.122Z,20.43
2019-04-14T09:44:50.790Z,20.60
2019-04-14T09:47:19.217Z,21.07
2019-04-14T09:49:47.625Z,19.70
2019-04-14T09:52:16.045Z,20.27
2019-04-14T09:54:44.500Z,20.10
2019-04-14T09:57:13.176Z,20.43
2019-04-14T09:59:41.638Z,19.63
2019-04-14T10:02:10.069Z,24.37
2019-04-14T10:04:38.621Z,21.27
2019-04-14T10:07:07.037Z,20.30
2019-04-14T10:09:35.529Z,21.40
2019-04-14T10:12:04.135Z,20.50
2019-04-14T10:14:32.556Z,19.43
2019-04-14T10:17:01.491Z,20.70
2019-04-14T10:19:30.239Z,20.30
2019-04-14T10:21:58.724Z,19.77
2019-04-14T10:24:27.128Z,20.70
2019-04-14T10:26:55.520Z,19.07
2019-04-14T10:29:23.953Z,19.37
2019-04-14T10:31:52.396Z,18.73
2019-04-14T10:34:20.795Z,19.73
2019-04-14T10:36:49.204Z,19.60
2019-04-14T10:39:17.620Z,19.70
2019-04-14T10:41:46.111Z,21.40
2019-04-14T10:44:14.531Z,19.17
2019-04-14T10:46:42.943Z,20.37
2019-04-14T10:49:11.344Z,20.27
2019-04-14T10:51:39.762Z,20.97
2019-04-14T10:54:08.167Z,21.00
2019-04-14T10:56:36.626Z,21.00
2019-04-14T10:59:05.194Z,21.50
2019-04-14T11:01:33.666Z,20.73
2019-04-14T11:04:02.126Z,21.50
2019-04-14T11:06:32.214Z,19.53
2019-04-14T11:09:00.624Z,21.63
2019-04-14T11:11:29.036Z,22.13
2019-04-14T11:13:57.478Z,21.23
2019-04-14T11:16:25.897Z,21.67
2019-04-14T11:18:54.298Z,22.13
2019-04-14T11:21:22.963Z,21.23
2019-04-14T11:23:51.360Z,22.80
2019-04-14T11:26:19.764Z,21.20
2019-04-14T11:28:48.179Z,20.57
2019-04-14T11:31:18.395Z,21.90
2019-04-14T11:33:59.894Z,20.47
2019-04-14T11:36:39.082Z,22.03
2019-04-14T11:39:09.145Z,21.13
2019-04-14T11:41:37.814Z,25.27
2019-04-14T11:44:06.389Z,22.60
2019-04-14T11:46:34.786Z,21.43
2019-04-14T11:49:03.299Z,21.20
2019-04-14T11:51:31.769Z,21.77
2019-04-14T11:54:00.738Z,21.00
2019-04-14T11:56:29.165Z,21.80
2019-04-14T11:58:57.688Z,20.00
2019-04-14T12:01:44.045Z,21.30
2019-04-14T12:04:25.966Z,21.63
2019-04-14T12:07:13.347Z,21.07
2019-04-14T12:09:43.383Z,21.57
2019-04-14T12:12:11.818Z,21.03
2019-04-14T12:14:40.239Z,21.87
2019-04-14T12:17:08.705Z,20.97
2019-04-14T12:19:37.156Z,19.70
2019-04-14T12:22:08.380Z,19.47
2019-04-14T12:24:35.911Z,19.57
2019-04-14T12:27:04.569Z,20.40
2019-04-14T12:29:32.966Z,20.93
2019-04-14T12:32:01.767Z,20.10
2019-04-14T12:34:30.350Z,19.63
2019-04-14T12:36:58.879Z,20.47
2019-04-14T12:39:27.254Z,19.10
2019-04-14T12:42:06.761Z,18.17
2019-04-14T12:44:39.535Z,17.87
2019-04-14T12:47:25.667Z,16.47
2019-04-14T12:50:12.218Z,16.83
2019-04-14T12:52:40.630Z,15.63
2019-04-14T12:55:09.202Z,15.67
2019-04-14T12:57:39.495Z,16.13
2019-04-14T13:00:10.000Z,16.03
2019-04-14T13:02:40.052Z,15.03
2019-04-14T13:05:09.200Z,14.97
2019-04-14T13:07:37.601Z,13.67
2019-04-14T13:10:07.797Z,14.17
2019-04-14T13:12:36.198Z,14.70
2019-04-14T13:15:06.349Z,14.13
2019-04-14T13:17:34.770Z,13.47
2019-04-14T13:20:05.189Z,12.63
2019-04-14T13:22:34.446Z,12.57
2019-04-14T13:25:03.503Z,11.90
2019-04-14T13:27:31.975Z,11.70
2019-04-14T13:30:00.458Z,12.60
2019-04-14T13:32:35.972Z,12.03
2019-04-14T13:34:59.105Z,12.13
2019-04-14T13:37:27.763Z,11.90
2019-04-14T13:39:56.224Z,13.10
2019-04-14T13:42:24.880Z,12.00
2019-04-14T13:44:53.322Z,11.40
2019-04-14T13:47:21.761Z,12.37
2019-04-14T13:49:50.165Z,12.67
2019-04-14T13:52:18.590Z,13.47
2019-04-14T13:54:47.037Z,12.57
2019-04-14T13:57:15.588Z,13.13
2019-04-14T13:59:44.223Z,12.10
2019-04-14T14:02:12.768Z,14.60
2019-04-14T14:04:41.198Z,13.80
2019-04-14T14:07:09.772Z,12.63
2019-04-14T14:09:38.160Z,12.53
2019-04-14T14:12:14.191Z,11.50
2019-04-14T14:14:44.313Z,12.63
2019-04-14T14:17:17.350Z,13.00
2019-04-14T14:19:59.262Z,12.00
2019-04-14T14:22:29.350Z,13.03
2019-04-14T14:25:02.485Z,12.17
2019-04-14T14:27:30.887Z,13.13
2019-04-14T14:29:59.300Z,13.50
2019-04-14T14:32:29.339Z,12.83
2019-04-14T14:34:57.745Z,13.07
2019-04-14T14:37:26.165Z,12.80
2019-04-14T14:39:54.562Z,13.50
2019-04-14T14:42:22.969Z,13.13
2019-04-14T14:44:53.023Z,12.33
2019-04-14T14:47:25.858Z,12.70
2019-04-14T14:49:58.642Z,12.43
2019-04-14T14:52:27.986Z,13.37
2019-04-14T14:54:56.393Z,12.27
2019-04-14T14:57:24.865Z,12.80
2019-04-14T14:59:53.306Z,13.00
2019-04-14T15:02:21.898Z,12.70
2019-04-14T15:04:50.294Z,13.27
2019-04-14T15:07:18.711Z,12.60
2019-04-14T15:09:47.165Z,13.07
2019-04-14T15:12:15.585Z,13.13
2019-04-14T15:14:44.039Z,13.00
2019-04-14T15:17:12.535Z,12.30
2019-04-14T15:19:40.942Z,12.73
2019-04-14T15:22:13.321Z,13.07
2019-04-14T15:24:41.794Z,12.80
2019-04-14T15:27:10.576Z,12.77
2019-04-14T15:29:39.054Z,12.37
2019-04-14T15:32:07.486Z,12.37
2019-04-14T15:34:35.886Z,13.73
2019-04-14T15:37:04.354Z,12.77
2019-04-14T15:39:32.932Z,13.77
2019-04-14T15:42:01.367Z,12.87
2019-04-14T15:44:29.766Z,14.10
2019-04-14T15:46:58.230Z,12.30
2019-04-14T15:49:26.674Z,12.97
2019-04-14T15:51:55.071Z,13.03
2019-04-14T15:54:25.413Z,13.97
2019-04-14T15:57:07.563Z,12.50
2019-04-14T15:59:53.832Z,12.77
2019-04-14T16:02:32.865Z,12.90
2019-04-14T16:05:02.924Z,11.00
2019-04-14T16:07:33.009Z,12.83
2019-04-14T16:10:15.389Z,12.60
2019-04-14T16:12:48.359Z,12.63
2019-04-14T16:15:21.106Z,11.57
2019-04-14T16:17:51.160Z,11.53
2019-04-14T16:20:27.178Z,11.93
2019-04-14T16:22:55.596Z,12.63
2019-04-14T16:25:25.630Z,10.07
2019-04-14T16:27:58.522Z,10.77
2019-04-14T16:30:43.637Z,10.87
2019-04-14T16:33:16.415Z,11.23
2019-04-14T16:35:46.360Z,11.53
2019-04-14T16:38:14.840Z,11.07
2019-04-14T16:40:43.279Z,10.93
2019-04-14T16:43:11.782Z,11.70
2019-04-14T16:45:40.191Z,10.17
2019-04-14T16:48:08.611Z,11.77
2019-04-14T16:50:37.031Z,10.67
2019-04-14T16:53:07.142Z,11.70
2019-04-14T16:55:41.258Z,10.53
2019-04-14T16:58:11.422Z,10.47
2019-04-14T17:00:41.459Z,10.77
2019-04-14T17:03:09.929Z,9.93
2019-04-14T17:05:39.151Z,9.83
2019-04-14T17:08:07.783Z,9.23
2019-04-14T17:10:36.175Z,9.63
2019-04-14T17:13:04.659Z,10.57
2019-04-14T17:15:34.715Z,9.27
2019-04-14T17:18:21.007Z,9.40
2019-04-14T17:20:51.055Z,9.70
2019-04-14T17:23:36.666Z,9.00
2019-04-14T17:26:06.750Z,8.97
2019-04-14T17:28:36.850Z,10.03
2019-04-14T17:31:21.987Z,8.93
2019-04-14T17:34:01.186Z,9.23
2019-04-14T17:36:40.055Z,9.20
2019-04-14T17:39:15.766Z,9.30
2019-04-14T17:41:48.698Z,10.00
2019-04-14T17:44:18.767Z,9.63
2019-04-14T17:47:05.285Z,9.40
2019-04-14T17:49:40.894Z,9.40
2019-04-14T17:52:28.820Z,9.30
2019-04-14T17:54:58.881Z,8.27
2019-04-14T17:57:28.896Z,8.67
2019-04-14T18:00:01.727Z,10.60
2019-04-14T18:02:40.691Z,9.60
2019-04-14T18:05:10.886Z,8.33
2019-04-14T18:07:40.920Z,8.80
2019-04-14T18:10:20.073Z,9.17
2019-04-14T18:12:52.930Z,9.47
2019-04-14T18:15:32.444Z,9.77
2019-04-14T18:18:08.402Z,9.80
2019-04-14T18:20:41.281Z,9.60
2019-04-14T18:23:09.668Z,9.90
2019-04-14T18:25:38.063Z,9.40
2019-04-14T18:28:08.286Z,8.57
2019-04-14T18:30:38.643Z,9.50
2019-04-14T18:33:08.777Z,9.73
2019-04-14T18:35:54.073Z,10.37
2019-04-14T18:38:30.295Z,9.40
2019-04-14T18:41:03.054Z,9.50
2019-04-14T18:43:36.253Z,10.27
2019-04-14T18:46:12.119Z,10.20
2019-04-14T18:48:42.378Z,10.33
2019-04-14T18:51:15.240Z,10.30
2019-04-14T18:54:03.246Z,10.17
2019-04-14T18:56:42.338Z,9.67
2019-04-14T18:59:18.399Z,10.20
2019-04-14T19:01:48.614Z,9.07
2019-04-14T19:04:17.156Z,10.10
2019-04-14T19:06:45.547Z,9.90
2019-04-14T19:09:14.038Z,10.50
2019-04-14T19:11:53.194Z,10.17
2019-04-14T19:14:23.262Z,10.27
2019-04-14T19:16:53.360Z,10.20
2019-04-14T19:19:23.342Z,10.30
2019-04-14T19:21:51.860Z,11.17
2019-04-14T19:24:20.286Z,10.97
2019-04-14T19:26:48.661Z,10.50
2019-04-14T19:29:17.051Z,11.03
2019-04-14T19:31:45.651Z,11.27
2019-04-14T19:34:14.051Z,11.03
2019-04-14T19:36:42.446Z,12.10
2019-04-14T19:39:10.924Z,11.60
2019-04-14T19:41:39.669Z,12.20
2019-04-14T19:44:08.078Z,11.93
2019-04-14T19:46:36.483Z,13.17
2019-04-14T19:49:04.911Z,12.73
2019-04-14T19:51:33.309Z,12.60
2019-04-14T19:54:01.862Z,13.57
2019-04-14T19:56:30.363Z,13.10
2019-04-14T19:58:58.846Z,13.73
2019-04-14T20:01:27.330Z,12.97
2019-04-14T20:03:55.907Z,13.00
2019-04-14T20:06:24.415Z,12.00
2019-04-14T20:08:52.806Z,13.13
2019-04-14T20:11:21.275Z,12.40
2019-04-14T20:13:49.931Z,12.40
2019-04-14T20:16:36.534Z,12.53
2019-04-14T20:19:15.814Z,12.70
2019-04-14T20:21:48.773Z,12.10
2019-04-14T20:24:18.816Z,11.43
2019-04-14T20:26:57.666Z,11.83
2019-04-14T20:29:30.673Z,11.97
2019-04-14T20:32:06.813Z,12.50
2019-04-14T20:34:35.238Z,12.07
2019-04-14T20:37:03.713Z,15.10
2019-04-14T20:39:32.878Z,12.03
2019-04-14T20:42:01.279Z,11.30
2019-04-14T20:44:29.751Z,13.43
2019-04-14T20:46:58.232Z,13.30
2019-04-14T20:49:27.618Z,15.43
2019-04-14T20:51:56.035Z,14.00
2019-04-14T20:54:24.508Z,12.57
2019-04-14T20:56:52.919Z,12.70
2019-04-14T20:59:21.342Z,12.53
2019-04-14T21:01:51.390Z,11.67
2019-04-14T21:04:33.797Z,12.57
2019-04-14T21:07:12.678Z,12.23
2019-04-14T21:09:48.770Z,11.60
2019-04-14T21:12:30.461Z,11.70
2019-04-14T21:15:15.619Z,11.33
2019-04-14T21:17:45.646Z,10.73
2019-04-14T21:20:15.735Z,11.23
2019-04-14T21:22:51.819Z,10.97
2019-04-14T21:25:36.687Z,10.50
2019-04-14T21:28:09.266Z,10.30
2019-04-14T21:30:39.329Z,10.60
2019-04-14T21:33:12.350Z,10.00
2019-04-14T21:35:59.015Z,10.90
2019-04-14T21:38:41.411Z,9.80
2019-04-14T21:41:11.450Z,10.73
2019-04-14T21:43:39.851Z,10.23
2019-04-14T21:46:08.326Z,11.13
2019-04-14T21:48:36.710Z,10.43
2019-04-14T21:51:05.154Z,11.40
2019-04-14T21:53:33.573Z,10.67
2019-04-14T21:56:12.870Z,10.70
2019-04-14T21:58:33.782Z,11.70
2019-04-14T22:01:35.047Z,10.43
2019-04-14T22:04:05.146Z,9.30
2019-04-14T22:06:47.432Z,10.77
2019-04-14T22:09:17.523Z,11.57
2019-04-14T22:11:46.050Z,10.93
2019-04-14T22:14:14.475Z,11.57
2019-04-14T22:16:42.883Z,10.53
2019-04-14T22:19:11.339Z,10.00
2019-04-14T22:21:39.729Z,11.43
2019-04-14T22:24:08.214Z,10.77
2019-04-14T22:26:36.590Z,10.77
2019-04-14T22:29:05.081Z,10.73
2019-04-14T22:31:33.483Z,10.90
2019-04-14T22:34:02.084Z,10.83
2019-04-14T22:36:30.497Z,10.47
2019-04-14T22:38:58.886Z,12.13
2019-04-14T22:41:27.310Z,10.77
2019-04-14T22:43:55.778Z,10.70
2019-04-14T22:46:24.237Z,11.13
2019-04-14T22:48:52.866Z,11.50
2019-04-14T22:51:21.318Z,10.97
2019-04-14T22:53:50.051Z,10.17
2019-04-14T22:56:18.458Z,10.83
2019-04-14T22:58:46.947Z,11.97
2019-04-14T23:01:22.983Z,12.10
2019-04-14T23:03:59.338Z,13.40
2019-04-14T23:06:35.374Z,15.37
2019-04-14T23:09:18.639Z,14.53
2019-04-14T23:11:48.686Z,14.60
2019-04-14T23:14:27.728Z,13.70
2019-04-14T23:17:14.193Z,14.30
2019-04-14T23:19:44.243Z,13.80
2019-04-14T23:22:23.502Z,14.17
2019-04-14T23:24:51.894Z,13.93
2019-04-14T23:27:20.291Z,13.37
2019-04-14T23:29:48.751Z,13.77
2019-04-14T23:32:17.146Z,12.87
2019-04-14T23:35:05.970Z,13.10
2019-04-14T23:37:34.736Z,13.33
2019-04-14T23:40:04.133Z,14.57
2019-04-14T23:42:32.662Z,13.27
2019-04-14T23:45:01.061Z,12.77
2019-04-14T23:47:29.513Z,12.87
2019-04-14T23:49:57.956Z,12.60
2019-04-14T23:52:26.421Z,13.37
2019-04-14T23:54:54.975Z,12.83
2019-04-14T23:57:23.332Z,12.43
2019-04-14T23:59:51.737Z,12.17
